Time;durP1;ratioP1;P1;durP2;ratioP2;P2;SDS_P1;SDS_P2;PMS_P1;PMS_P2;Temp;Humidity;BMP_temperature;BMP_pressure;BME280_temperature;BME280_humidity;BME280_pressure;Samples;Min_cycle;Max_cycle;Signal;HPM_P1;HPM_P2
2023/09/19 00:02:13;;;;;;;;;;;;;;;12.46;100.00;100415.53;4915910;28;19926;-86
2023/09/19 00:04:58;;;;;;;;;;;;;;;12.48;100.00;100418.94;4928216;28;19941;-86
2023/09/19 00:07:44;;;;;;;;;;;;;;;12.50;100.00;100426.81;4947857;28;19934;-87
2023/09/19 00:10:31;;;;;;;;;;;;;;;12.52;100.00;100429.38;4932350;28;19993;-85
2023/09/19 00:13:20;;;;;;;;;;;;;;;12.51;100.00;100423.19;4933003;28;19934;-88
2023/09/19 00:16:11;;;;;;;;;;;;;;;12.53;100.00;100437.22;4939113;28;20029;-91
2023/09/19 00:18:57;;;;;;;;;;;;;;;12.54;100.00;100432.78;4938276;28;19941;-87
2023/09/19 00:21:45;;;;;;;;;;;;;;;12.55;100.00;100437.16;4934181;28;20429;-85
2023/09/19 00:24:31;;;;;;;;;;;;;;;12.55;100.00;100443.31;4957678;28;20026;-89
2023/09/19 00:27:18;;;;;;;;;;;;;;;12.52;100.00;100445.31;4944175;28;20385;-88
2023/09/19 00:30:04;;;;;;;;;;;;;;;12.47;100.00;100442.91;4925911;28;19954;-87
2023/09/19 00:32:52;;;;;;;;;;;;;;;12.42;100.00;100450.31;4931218;28;19926;-91
2023/09/19 00:35:38;;;;;;;;;;;;;;;12.38;100.00;100451.44;4930980;28;19958;-90
2023/09/19 00:38:26;;;;;;;;;;;;;;;12.31;100.00;100459.75;4930037;28;19930;-88
2023/09/19 00:41:12;;;;;;;;;;;;;;;12.29;100.00;100456.34;4938027;28;19991;-87
2023/09/19 00:44:00;;;;;;;;;;;;;;;12.28;100.00;100461.75;4940860;28;19937;-87
2023/09/19 00:46:49;;;;;;;;;;;;;;;12.23;100.00;100454.06;4932348;28;20312;-92
2023/09/19 00:49:34;;;;;;;;;;;;;;;12.18;100.00;100462.28;4940382;28;19962;-89
2023/09/19 00:52:21;;;;;;;;;;;;;;;12.14;100.00;100470.53;4935130;28;20763;-87
2023/09/19 00:55:07;;;;;;;;;;;;;;;12.11;100.00;100470.69;4939779;28;20824;-86
2023/09/19 00:57:54;;;;;;;;;;;;;;;12.09;100.00;100476.06;4937945;28;20295;-89
2023/09/19 01:00:40;;;;;;;;;;;;;;;12.05;100.00;100472.75;4957256;28;19933;-88
2023/09/19 01:03:25;;;;;;;;;;;;;;;12.02;100.00;100475.56;4945166;28;19929;-87
2023/09/19 01:06:12;;;;;;;;;;;;;;;12.01;100.00;100467.66;4965944;28;19944;-87
2023/09/19 01:08:58;;;;;;;;;;;;;;;11.98;100.00;100466.03;4968138;28;19953;-91
2023/09/19 01:11:45;;;;;;;;;;;;;;;11.95;100.00;100474.19;4942796;28;20340;-88
2023/09/19 01:14:52;;;;;;;;;;;;;;;11.89;100.00;100471.88;4942109;28;19911;-89
2023/09/19 01:17:58;;;;;;;;;;;;;;;11.89;100.00;100482.50;4948667;28;19945;-89
2023/09/19 01:21:06;;;;;;;;;;;;;;;11.89;100.00;100487.81;4951480;28;19930;-90
2023/09/19 01:26:35;;;;;;;;;;;;;;;11.89;100.00;100493.09;5143648;23;19930;-86
2023/09/19 01:29:39;;;;;;;;;;;;;;;11.90;100.00;100493.03;5006523;28;19984;-90
2023/09/19 01:32:28;;;;;;;;;;;;;;;11.87;100.00;100482.56;5054040;23;19925;-87
2023/09/19 01:35:13;;;;;;;;;;;;;;;11.87;100.00;100492.34;4976255;28;19926;-89
2023/09/19 01:38:07;;;;;;;;;;;;;;;11.90;100.00;100494.81;5070671;23;19925;-90
2023/09/19 01:41:12;;;;;;;;;;;;;;;11.92;100.00;100498.22;4957106;28;20329;-87
2023/09/19 01:44:14;;;;;;;;;;;;;;;;;;;;;
2023/09/19 01:47:01;;;;;;;;;;;;;;;11.96;100.00;100497.13;4963676;28;19934;-93
2023/09/19 01:50:00;;;;;;;;;;;;;;;11.98;100.00;100505.84;4958161;28;19930;-89
2023/09/19 01:52:49;;;;;;;;;;;;;;;12.02;100.00;100495.91;4951607;28;19926;-92
2023/09/19 01:55:42;;;;;;;;;;;;;;;12.02;100.00;100493.25;4949505;28;19930;-90
2023/09/19 01:58:33;;;;;;;;;;;;;;;11.98;100.00;100491.75;4944820;28;19964;-91
2023/09/19 02:01:26;;;;;;;;;;;;;;;12.00;100.00;100496.03;4951023;28;19942;-91
2023/09/19 02:04:12;;;;;;;;;;;;;;;12.01;100.00;100489.75;4967734;28;21103;-90
2023/09/19 02:06:58;;;;;;;;;;;;;;;12.02;100.00;100487.94;4963886;28;19930;-88
2023/09/19 02:09:47;;;;;;;;;;;;;;;12.02;100.00;100485.28;4966856;28;19926;-90
2023/09/19 02:12:34;;;;;;;;;;;;;;;12.01;100.00;100494.19;4979026;28;19922;-88
2023/09/19 02:15:20;;;;;;;;;;;;;;;12.00;100.00;100500.47;4977721;28;19926;-89
2023/09/19 02:18:07;;;;;;;;;;;;;;;12.01;100.00;100504.81;4973078;28;19929;-87
2023/09/19 02:20:56;;;;;;;;;;;;;;;12.02;100.00;100498.56;4975489;28;19933;-91
2023/09/19 02:23:41;;;;;;;;;;;;;;;12.05;100.00;100501.09;4961175;28;19929;-87
2023/09/19 02:26:27;;;;;;;;;;;;;;;12.06;100.00;100501.00;4985989;28;19937;-86
2023/09/19 02:29:15;;;;;;;;;;;;;;;12.06;100.00;100508.09;4986540;28;19941;-87
2023/09/19 02:32:01;;;;;;;;;;;;;;;12.06;100.00;100508.97;4990631;28;19937;-87
2023/09/19 02:34:47;;;;;;;;;;;;;;;12.10;100.00;100509.66;4978503;28;19933;-89
2023/09/19 02:37:36;;;;;;;;;;;;;;;12.13;100.00;100500.63;4992187;28;19930;-89
2023/09/19 02:40:39;;;;;;;;;;;;;;;12.16;100.00;100506.63;4970850;28;19921;-90
2023/09/19 02:43:25;;;;;;;;;;;;;;;12.12;100.00;100512.19;4974077;28;19956;-89
2023/09/19 02:46:11;;;;;;;;;;;;;;;12.09;100.00;100514.09;4961522;28;19933;-88
2023/09/19 02:49:00;;;;;;;;;;;;;;;12.07;100.00;100515.97;4977940;28;19937;-94
2023/09/19 02:51:48;;;;;;;;;;;;;;;12.11;100.00;100511.34;4971098;28;19937;-92
2023/09/19 02:54:34;;;;;;;;;;;;;;;12.11;100.00;100514.00;4976298;28;19930;-92
2023/09/19 02:57:24;;;;;;;;;;;;;;;12.11;100.00;100503.41;4977501;28;20636;-94
2023/09/19 03:00:12;;;;;;;;;;;;;;;12.09;100.00;100495.50;4990182;28;19926;-88
2023/09/19 03:02:57;;;;;;;;;;;;;;;12.08;100.00;100488.50;4985855;28;19925;-89
2023/09/19 03:05:46;;;;;;;;;;;;;;;12.07;100.00;100484.13;4968295;28;20049;-88
2023/09/19 03:08:35;;;;;;;;;;;;;;;12.13;100.00;100484.72;4964908;28;19926;-88
2023/09/19 03:11:22;;;;;;;;;;;;;;;12.11;100.00;100502.53;4964450;28;19946;-89
2023/09/19 03:14:10;;;;;;;;;;;;;;;12.09;100.00;100508.78;4964141;28;19926;-89
2023/09/19 03:16:55;;;;;;;;;;;;;;;12.07;100.00;100523.06;4972840;28;19965;-90
2023/09/19 03:19:41;;;;;;;;;;;;;;;12.06;100.00;100522.22;4981520;28;19981;-89
2023/09/19 03:22:27;;;;;;;;;;;;;;;12.11;100.00;100527.28;4981738;28;19934;-88
2023/09/19 03:25:14;;;;;;;;;;;;;;;12.12;100.00;100528.13;4960550;28;19930;-89
2023/09/19 03:27:59;;;;;;;;;;;;;;;12.09;100.00;100518.53;4961871;28;20285;-89
2023/09/19 03:30:45;;;;;;;;;;;;;;;12.04;100.00;100518.78;4962896;28;19936;-92
2023/09/19 03:33:34;;;;;;;;;;;;;;;12.02;100.00;100515.34;4971395;28;19926;-89
2023/09/19 03:36:19;;;;;;;;;;;;;;;12.04;100.00;100521.44;4963455;28;19934;-91
2023/09/19 03:39:05;;;;;;;;;;;;;;;12.14;100.00;100527.09;4961702;28;19930;-89
2023/09/19 03:41:51;;;;;;;;;;;;;;;12.14;100.00;100515.63;4975726;28;19945;-89
2023/09/19 03:44:37;;;;;;;;;;;;;;;12.09;100.00;100516.75;4976504;28;19940;-89
2023/09/19 03:47:23;;;;;;;;;;;;;;;12.07;100.00;100520.41;4978718;28;19988;-86
2023/09/19 03:50:10;;;;;;;;;;;;;;;12.05;100.00;100528.47;4972067;28;19933;-91
2023/09/19 03:52:57;;;;;;;;;;;;;;;12.03;100.00;100517.09;4973349;28;19941;-89
2023/09/19 03:55:44;;;;;;;;;;;;;;;12.04;100.00;100521.44;4974594;28;19985;-89
2023/09/19 03:58:30;;;;;;;;;;;;;;;12.09;100.00;100523.84;4966637;28;19979;-88
2023/09/19 04:01:18;;;;;;;;;;;;;;;12.11;100.00;100518.44;4952398;28;19929;-91
2023/09/19 04:04:08;;;;;;;;;;;;;;;12.10;100.00;100520.25;4966731;28;20020;-90
2023/09/19 04:06:56;;;;;;;;;;;;;;;12.10;100.00;100522.91;4966910;28;19930;-87
2023/09/19 04:09:42;;;;;;;;;;;;;;;12.12;100.00;100538.72;4984053;28;19956;-92
2023/09/19 04:12:27;;;;;;;;;;;;;;;12.12;100.00;100534.28;4960346;28;21460;-89
2023/09/19 04:15:14;;;;;;;;;;;;;;;12.13;100.00;100519.19;4968469;28;20506;-89
2023/09/19 04:17:59;;;;;;;;;;;;;;;12.12;100.00;100528.13;4959223;28;20352;-88
2023/09/19 04:20:49;;;;;;;;;;;;;;;12.14;100.00;100526.25;4962519;28;19933;-89
2023/09/19 04:23:35;;;;;;;;;;;;;;;12.17;100.00;100532.22;4963457;28;19929;-90
2023/09/19 04:26:21;;;;;;;;;;;;;;;12.21;100.00;100527.59;4963482;28;20542;-88
2023/09/19 04:29:10;;;;;;;;;;;;;;;12.24;100.00;100543.34;4955095;28;20594;-89
2023/09/19 04:31:57;;;;;;;;;;;;;;;12.26;100.00;100545.91;4960183;28;19930;-87
2023/09/19 04:34:43;;;;;;;;;;;;;;;12.27;100.00;100543.19;4956067;28;19969;-87
2023/09/19 04:37:31;;;;;;;;;;;;;;;12.29;100.00;100553.69;4957680;28;19941;-92
2023/09/19 04:40:19;;;;;;;;;;;;;;;12.33;100.00;100552.56;4959237;28;20094;-90
2023/09/19 04:43:05;;;;;;;;;;;;;;;12.34;100.00;100552.50;4975865;28;19934;-89
2023/09/19 04:45:51;;;;;;;;;;;;;;;12.36;100.00;100550.59;4974213;28;19964;-91
2023/09/19 04:48:37;;;;;;;;;;;;;;;12.38;100.00;100547.88;4973309;28;19929;-86
2023/09/19 04:51:23;;;;;;;;;;;;;;;12.39;100.00;100557.53;4980262;28;19922;-88
2023/09/19 04:54:09;;;;;;;;;;;;;;;12.44;100.00;100559.91;4982470;28;19968;-91
2023/09/19 04:56:55;;;;;;;;;;;;;;;12.52;100.00;100557.66;4965364;28;20442;-89
2023/09/19 04:59:41;;;;;;;;;;;;;;;12.57;100.00;100560.91;4990879;28;19926;-91
2023/09/19 05:02:30;;;;;;;;;;;;;;;12.59;100.00;100553.72;4962642;28;20407;-92
2023/09/19 05:05:19;;;;;;;;;;;;;;;12.61;100.00;100550.97;4967349;28;20012;-92
2023/09/19 05:08:05;;;;;;;;;;;;;;;12.61;100.00;100551.84;4967267;28;19976;-91
2023/09/19 05:10:50;;;;;;;;;;;;;;;12.63;100.00;100557.03;4964816;28;20284;-90
2023/09/19 05:13:36;;;;;;;;;;;;;;;12.68;100.00;100559.44;4964612;28;19930;-94
2023/09/19 05:16:22;;;;;;;;;;;;;;;12.68;100.00;100564.75;4991752;28;19929;-90
2023/09/19 05:19:11;;;;;;;;;;;;;;;12.68;100.00;100567.41;4973332;28;19925;-93
2023/09/19 05:21:57;;;;;;;;;;;;;;;12.69;100.00;100566.47;4970508;28;19985;-92
2023/09/19 05:24:42;;;;;;;;;;;;;;;12.72;100.00;100564.47;4972606;28;20465;-91
2023/09/19 05:27:28;;;;;;;;;;;;;;;12.73;100.00;100562.66;4973919;28;20515;-93
2023/09/19 05:30:16;;;;;;;;;;;;;;;12.73;100.00;100565.31;4983291;28;19926;-89
2023/09/19 05:33:04;;;;;;;;;;;;;;;12.72;100.00;100568.94;4955775;28;20037;-87
2023/09/19 05:35:50;;;;;;;;;;;;;;;12.72;100.00;100568.94;4964346;28;19944;-89
2023/09/19 05:38:35;;;;;;;;;;;;;;;12.72;100.00;100551.19;4969892;28;19934;-91
2023/09/19 05:41:21;;;;;;;;;;;;;;;12.72;100.00;100571.59;4964219;28;19973;-90
2023/09/19 05:44:07;;;;;;;;;;;;;;;12.72;100.00;100563.63;4955970;28;19922;-89
2023/09/19 05:46:56;;;;;;;;;;;;;;;12.74;100.00;100577.66;4967871;28;19933;-89
2023/09/19 05:49:42;;;;;;;;;;;;;;;12.75;100.00;100580.22;4959179;28;20009;-89
2023/09/19 05:52:28;;;;;;;;;;;;;;;12.77;100.00;100586.28;4971975;28;19976;-90
2023/09/19 05:55:14;;;;;;;;;;;;;;;12.80;100.00;100587.91;4960888;28;20381;-86
2023/09/19 05:58:00;;;;;;;;;;;;;;;12.81;100.00;100594.09;4969617;28;20407;-88
2023/09/19 06:00:48;;;;;;;;;;;;;;;12.84;100.00;100601.88;4985718;28;20301;-88
2023/09/19 06:03:35;;;;;;;;;;;;;;;12.85;100.00;100604.44;4977809;28;19925;-87
2023/09/19 06:06:21;;;;;;;;;;;;;;;12.86;100.00;100592.88;4977090;28;19936;-90
2023/09/19 06:09:10;;;;;;;;;;;;;;;12.88;100.00;100596.31;4959734;28;19925;-87
2023/09/19 06:11:55;;;;;;;;;;;;;;;12.89;100.00;100597.16;4987193;28;19926;-87
2023/09/19 06:14:41;;;;;;;;;;;;;;;12.88;100.00;100598.97;4989230;28;19922;-86
2023/09/19 06:17:28;;;;;;;;;;;;;;;12.92;100.00;100597.00;4990069;28;20136;-92
2023/09/19 06:20:14;;;;;;;;;;;;;;;12.96;100.00;100597.66;4973576;28;19925;-88
2023/09/19 06:23:02;;;;;;;;;;;;;;;12.97;100.00;100588.72;4957258;28;20412;-88
2023/09/19 06:25:48;;;;;;;;;;;;;;;12.99;100.00;100587.69;4966706;28;19936;-91
2023/09/19 06:28:33;;;;;;;;;;;;;;;13.04;100.00;100584.75;4976805;28;19925;-93
2023/09/19 06:31:22;;;;;;;;;;;;;;;13.08;100.00;100590.75;4964392;28;19964;-92
2023/09/19 06:34:08;;;;;;;;;;;;;;;13.11;100.00;100586.09;4962366;28;19934;-91
2023/09/19 06:36:55;;;;;;;;;;;;;;;13.15;100.00;100594.75;4972211;28;20036;-89
2023/09/19 06:39:41;;;;;;;;;;;;;;;13.19;100.00;100593.63;4957878;28;19934;-89
2023/09/19 06:42:28;;;;;;;;;;;;;;;13.25;100.00;100597.69;4945642;28;20289;-92
2023/09/19 06:45:17;;;;;;;;;;;;;;;13.35;100.00;100590.03;4946883;28;19922;-94
2023/09/19 06:48:05;;;;;;;;;;;;;;;13.42;100.00;100589.53;4945634;28;19922;-93
2023/09/19 06:50:51;;;;;;;;;;;;;;;13.52;100.00;100591.66;4951892;28;20155;-93
2023/09/19 06:53:36;;;;;;;;;;;;;;;13.61;100.00;100599.06;4963189;28;19926;-87
2023/09/19 06:56:24;;;;;;;;;;;;;;;13.71;100.00;100584.25;5073541;23;19945;-89
2023/09/19 07:04:33;;;;;;;;;;;;;;;13.98;100.00;100595.91;5000051;28;19933;-87
2023/09/19 07:07:21;;;;;;;;;;;;;;;14.03;100.00;100599.13;4979888;28;19934;-91
2023/09/19 07:10:10;;;;;;;;;;;;;;;14.07;100.00;100599.78;4978558;28;19957;-87
2023/09/19 07:13:03;;;;;;;;;;;;;;;14.10;100.00;100602.22;4988895;28;19930;-83
2023/09/19 07:16:19;;;;;;;;;;;;;;;14.12;100.00;100611.84;4969490;28;19930;-92
2023/09/19 07:19:05;;;;;;;;;;;;;;;14.14;100.00;100603.75;4999321;28;19940;-88
2023/09/19 07:21:50;;;;;;;;;;;;;;;14.14;100.00;100611.75;4977851;28;20004;-86
2023/09/19 07:24:37;;;;;;;;;;;;;;;14.12;100.00;100613.66;4991492;28;19941;-86
2023/09/19 07:27:23;;;;;;;;;;;;;;;14.14;100.00;100614.41;4986138;28;20828;-90
2023/09/19 07:30:09;;;;;;;;;;;;;;;14.19;100.00;100616.75;4974788;28;19930;-90
2023/09/19 07:32:55;;;;;;;;;;;;;;;14.25;100.00;100619.91;4957318;28;19930;-92
2023/09/19 07:35:40;;;;;;;;;;;;;;;14.33;100.00;100622.06;4973461;28;19926;-89
2023/09/19 07:38:26;;;;;;;;;;;;;;;14.41;100.00;100624.22;4979200;28;20016;-89
2023/09/19 07:41:12;;;;;;;;;;;;;;;14.51;100.00;100621.81;4980118;28;20377;-90
2023/09/19 07:43:58;;;;;;;;;;;;;;;14.62;100.00;100621.09;4970685;28;19929;-90
2023/09/19 07:46:44;;;;;;;;;;;;;;;14.70;100.00;100613.44;4978107;28;19979;-91
2023/09/19 07:49:29;;;;;;;;;;;;;;;14.81;100.00;100599.44;4966220;28;19965;-85
2023/09/19 07:52:15;;;;;;;;;;;;;;;14.88;100.00;100616.72;4987492;28;20012;-88
2023/09/19 07:55:06;;;;;;;;;;;;;;;14.94;100.00;100615.47;4982972;28;20010;-90
2023/09/19 07:57:52;;;;;;;;;;;;;;;14.96;100.00;100615.34;4968674;28;19941;-89
2023/09/19 08:00:38;;;;;;;;;;;;;;;15.01;100.00;100615.91;4979022;28;19934;-91
2023/09/19 08:03:24;;;;;;;;;;;;;;;15.04;100.00;100610.38;4970848;28;19937;-90
2023/09/19 08:06:10;;;;;;;;;;;;;;;15.06;100.00;100611.13;4953996;28;19930;-93
2023/09/19 08:08:56;;;;;;;;;;;;;;;15.10;100.00;100593.97;4958441;28;19970;-90
2023/09/19 08:11:42;;;;;;;;;;;;;;;15.18;100.00;100601.41;4935075;28;19956;-88
2023/09/19 08:14:29;;;;;;;;;;;;;;;15.28;100.00;100602.50;4972627;28;19926;-91
2023/09/19 08:17:14;;;;;;;;;;;;;;;15.38;100.00;100601.84;4942755;28;19973;-90
2023/09/19 08:20:00;;;;;;;;;;;;;;;15.43;100.00;100616.56;4954450;28;19930;-91
2023/09/19 08:22:52;;;;;;;;;;;;;;;15.46;100.00;100612.81;4957312;28;20021;-87
2023/09/19 08:25:38;;;;;;;;;;;;;;;15.50;100.00;100602.78;4942195;28;19965;-90
2023/09/19 08:28:24;;;;;;;;;;;;;;;15.52;100.00;100608.91;4972468;28;22164;-89
2023/09/19 08:31:10;;;;;;;;;;;;;;;15.57;100.00;100604.06;4958308;28;19929;-85
2023/09/19 08:33:55;;;;;;;;;;;;;;;15.60;100.00;100607.38;4970674;28;19940;-89
2023/09/19 08:36:43;;;;;;;;;;;;;;;15.63;100.00;100600.13;4970588;28;20040;-87
2023/09/19 08:39:30;;;;;;;;;;;;;;;15.66;100.00;100586.56;4970269;28;20488;-79
2023/09/19 08:42:21;;;;;;;;;;;;;;;15.70;100.00;100586.22;4971425;28;19940;-93
2023/09/19 08:45:06;;;;;;;;;;;;;;;15.74;100.00;100594.88;4955255;28;20204;-89
2023/09/19 08:48:13;;;;;;;;;;;;;;;15.80;100.00;100597.09;4953946;28;19989;-88
2023/09/19 08:51:08;;;;;;;;;;;;;;;15.86;100.00;100612.69;4966927;28;20056;-87
2023/09/19 08:54:05;;;;;;;;;;;;;;;15.89;100.00;100603.59;4968664;28;20400;-89
2023/09/19 08:56:51;;;;;;;;;;;;;;;15.88;100.00;100601.91;4975140;28;19936;-85
2023/09/19 08:59:39;;;;;;;;;;;;;;;15.90;100.00;100607.97;4943175;28;20027;-89
2023/09/19 09:02:25;;;;;;;;;;;;;;;15.94;100.00;100603.28;4939661;28;20405;-88
2023/09/19 09:05:11;;;;;;;;;;;;;;;15.99;100.00;100602.03;4940457;28;19934;-86
2023/09/19 09:07:56;;;;;;;;;;;;;;;16.07;100.00;100612.13;4937161;28;19976;-89
2023/09/19 09:10:44;;;;;;;;;;;;;;;16.11;100.00;100610.94;4930093;28;19922;-89
2023/09/19 09:13:30;;;;;;;;;;;;;;;16.12;100.00;100595.78;4939550;28;19927;-87
2023/09/19 09:16:18;;;;;;;;;;;;;;;16.13;100.00;100609.00;4950539;28;19958;-90
2023/09/19 09:19:04;;;;;;;;;;;;;;;16.14;100.00;100601.88;4934608;28;19931;-88
2023/09/19 09:21:51;;;;;;;;;;;;;;;16.15;100.00;100601.75;4931932;28;19974;-88
2023/09/19 09:24:58;;;;;;;;;;;;;;;16.26;100.00;100592.09;4930287;28;20405;-85
2023/09/19 09:27:44;;;;;;;;;;;;;;;16.36;100.00;100587.78;4921543;28;19926;-90
2023/09/19 09:30:34;;;;;;;;;;;;;;;16.46;100.00;100587.97;4929967;28;19929;-85
2023/09/19 09:33:21;;;;;;;;;;;;;;;16.49;100.00;100595.72;4928169;28;19934;-86
2023/09/19 09:36:08;;;;;;;;;;;;;;;16.53;100.00;100596.34;4926341;28;19957;-84
2023/09/19 09:38:55;;;;;;;;;;;;;;;16.62;100.00;100592.16;4927720;28;20878;-83
2023/09/19 09:41:40;;;;;;;;;;;;;;;16.64;100.00;100585.72;4939933;28;19930;-83
2023/09/19 09:44:31;;;;;;;;;;;;;;;16.62;100.00;100590.31;4927725;28;19930;-89
2023/09/19 09:47:30;;;;;;;;;;;;;;;16.61;100.00;100591.28;4941952;28;20780;-88
2023/09/19 09:50:36;;;;;;;;;;;;;;;16.61;100.00;100585.09;4936066;28;19950;-86
2023/09/19 09:53:25;;;;;;;;;;;;;;;16.64;100.00;100595.53;4929055;28;19931;-84
2023/09/19 09:56:12;;;;;;;;;;;;;;;16.64;100.00;100590.19;4938555;28;19926;-80
2023/09/19 09:58:59;;;;;;;;;;;;;;;16.60;100.00;100573.53;4943436;28;19934;-80
2023/09/19 10:01:53;;;;;;;;;;;;;;;16.55;100.00;100581.06;4944302;28;20032;-82
2023/09/19 10:04:51;;;;;;;;;;;;;;;16.50;100.00;100572.56;4923448;28;19927;-82
2023/09/19 10:08:00;;;;;;;;;;;;;;;16.48;100.00;100575.31;4932966;28;19934;-84
2023/09/19 10:13:29;;;;;;;;;;;;;;;16.66;100.00;100567.75;4939132;28;19973;-80
2023/09/19 10:16:15;;;;;;;;;;;;;;;16.78;100.00;100562.44;4940132;28;20013;-83
2023/09/19 10:19:02;;;;;;;;;;;;;;;16.83;100.00;100558.44;4948121;28;19937;-81
2023/09/19 10:21:47;;;;;;;;;;;;;;;16.88;100.00;100544.72;4931784;28;19969;-82
2023/09/19 10:24:33;;;;;;;;;;;;;;;16.93;100.00;100550.56;4949398;28;20002;-81
2023/09/19 10:27:21;;;;;;;;;;;;;;;16.99;100.00;100541.19;4936170;28;19930;-81
2023/09/19 10:30:08;;;;;;;;;;;;;;;17.00;100.00;100548.25;4924253;28;20393;-81
2023/09/19 10:32:57;;;;;;;;;;;;;;;17.00;100.00;100540.22;4951106;28;20005;-82
2023/09/19 10:35:47;;;;;;;;;;;;;;;16.93;100.00;100529.16;4947862;28;20489;-85
2023/09/19 10:38:33;;;;;;;;;;;;;;;16.83;100.00;100553.09;4942013;28;19976;-89
2023/09/19 10:41:19;;;;;;;;;;;;;;;16.69;100.00;100532.75;4957010;28;19937;-95
2023/09/19 10:44:09;;;;;;;;;;;;;;;16.62;100.00;100539.53;4920722;28;20109;-86
2023/09/19 10:46:55;;;;;;;;;;;;;;;16.57;100.00;100533.72;4936684;28;19926;-83
2023/09/19 10:49:46;;;;;;;;;;;;;;;16.52;100.00;100531.34;4914541;28;19943;-87
2023/09/19 10:52:34;;;;;;;;;;;;;;;16.51;100.00;100531.50;4949785;28;19926;-86
2023/09/19 10:55:22;;;;;;;;;;;;;;;16.49;100.00;100528.06;4924767;28;19936;-84
2023/09/19 10:58:14;;;;;;;;;;;;;;;16.49;100.00;100520.91;4935350;28;19959;-85
2023/09/19 11:01:06;;;;;;;;;;;;;;;16.56;100.00;100507.94;4939617;28;20039;-83
2023/09/19 11:03:53;;;;;;;;;;;;;;;16.62;100.00;100520.81;4937548;28;19931;-84
2023/09/19 11:06:38;;;;;;;;;;;;;;;16.68;100.00;100511.50;4935290;28;21016;-86
2023/09/19 11:09:26;;;;;;;;;;;;;;;16.68;100.00;100519.53;4940472;28;19926;-88
2023/09/19 11:12:14;;;;;;;;;;;;;;;16.67;100.00;100493.78;4923345;28;20105;-88
2023/09/19 11:15:04;;;;;;;;;;;;;;;16.70;100.00;100521.13;4935549;28;20340;-89
2023/09/19 11:17:52;;;;;;;;;;;;;;;16.73;100.00;100500.47;4916207;28;19926;-87
2023/09/19 11:20:41;;;;;;;;;;;;;;;16.73;100.00;100492.44;4936171;28;20435;-85
2023/09/19 11:23:27;;;;;;;;;;;;;;;16.79;100.00;100491.97;4939978;28;19977;-84
2023/09/19 11:26:32;;;;;;;;;;;;;;;16.96;100.00;100483.47;4927237;28;19931;-85
2023/09/19 11:29:26;;;;;;;;;;;;;;;17.07;100.00;100484.50;4921949;28;20582;-83
2023/09/19 11:32:17;;;;;;;;;;;;;;;17.04;100.00;100495.41;4933556;28;19930;-87
2023/09/19 11:35:16;;;;;;;;;;;;;;;16.92;100.00;100503.41;4929691;28;19922;-88
2023/09/19 11:38:02;;;;;;;;;;;;;;;16.82;100.00;100486.38;4934353;28;19937;-82
2023/09/19 11:40:55;;;;;;;;;;;;;;;16.76;100.00;100492.19;4947366;28;19926;-83
2023/09/19 11:43:43;;;;;;;;;;;;;;;16.64;100.00;100488.66;4936127;28;20523;-82
2023/09/19 11:46:32;;;;;;;;;;;;;;;16.54;100.00;100504.53;4949959;28;19936;-81
2023/09/19 11:49:21;;;;;;;;;;;;;;;16.35;100.00;100491.72;4932470;28;19965;-85
2023/09/19 11:52:09;;;;;;;;;;;;;;;16.18;100.00;100519.72;4936387;28;19973;-89
2023/09/19 11:55:27;;;;;;;;;;;;;;;15.97;100.00;100506.97;4940429;28;19930;-81
2023/09/19 11:58:17;;;;;;;;;;;;;;;15.79;100.00;100526.00;4934594;28;19934;-84
2023/09/19 12:01:07;;;;;;;;;;;;;;;15.64;100.00;100505.78;4943043;28;20301;-86
2023/09/19 12:03:57;;;;;;;;;;;;;;;15.50;100.00;100512.97;4938438;28;20654;-88
2023/09/19 12:06:44;;;;;;;;;;;;;;;15.39;100.00;100512.88;4936605;28;20462;-84
2023/09/19 12:09:29;;;;;;;;;;;;;;;15.35;100.00;100496.22;4925410;28;19922;-87
2023/09/19 12:12:28;;;;;;;;;;;;;;;15.43;100.00;100490.34;4940017;28;19937;-85
2023/09/19 12:15:14;;;;;;;;;;;;;;;15.57;100.00;100484.00;4949238;28;19941;-85
2023/09/19 12:18:04;;;;;;;;;;;;;;;15.71;100.00;100478.53;4950778;28;21526;-88
2023/09/19 12:20:50;;;;;;;;;;;;;;;15.84;100.00;100470.47;4949729;28;19937;-89
2023/09/19 12:23:37;;;;;;;;;;;;;;;15.94;100.00;100453.81;4939567;28;19930;-87
2023/09/19 12:26:24;;;;;;;;;;;;;;;16.04;100.00;100459.31;4925046;28;20566;-89
2023/09/19 12:29:14;;;;;;;;;;;;;;;16.11;100.00;100449.88;4927320;28;20719;-86
2023/09/19 12:32:03;;;;;;;;;;;;;;;16.12;100.00;100449.75;4948200;28;19930;-78
2023/09/19 12:34:52;;;;;;;;;;;;;;;16.15;100.00;100454.88;4938877;28;19930;-86
2023/09/19 12:37:52;;;;;;;;;;;;;;;16.15;100.00;100462.03;4948246;28;19928;-82
2023/09/19 12:40:42;;;;;;;;;;;;;;;16.12;100.00;100448.94;4952974;28;19931;-84
2023/09/19 12:43:34;;;;;;;;;;;;;;;16.09;100.00;100460.69;4937267;28;19930;-81
2023/09/19 12:46:24;;;;;;;;;;;;;;;16.08;100.00;100440.28;4936512;28;19973;-80
2023/09/19 12:49:19;;;;;;;;;;;;;;;16.05;100.00;100477.03;4922230;28;19930;-89
2023/09/19 12:52:05;;;;;;;;;;;;;;;16.00;100.00;100466.69;4921601;28;19930;-89
2023/09/19 12:54:51;;;;;;;;;;;;;;;15.98;100.00;100465.97;4933939;28;19926;-85
2023/09/19 12:57:39;;;;;;;;;;;;;;;16.02;100.00;100459.44;4932396;28;19930;-84
2023/09/19 13:00:34;;;;;;;;;;;;;;;16.10;100.00;100454.38;4951559;28;19930;-83
2023/09/19 13:03:24;;;;;;;;;;;;;;;16.19;100.00;100474.19;4953971;28;19937;-87
2023/09/19 13:06:11;;;;;;;;;;;;;;;16.20;100.00;100459.88;4952503;28;20079;-86
2023/09/19 13:09:13;;;;;;;;;;;;;;;16.22;100.00;100454.41;4938598;28;19935;-81
2023/09/19 13:12:02;;;;;;;;;;;;;;;16.23;100.00;100437.44;4931661;28;20017;-81
2023/09/19 13:14:50;;;;;;;;;;;;;;;16.28;100.00;100445.91;4937450;28;19930;-83
2023/09/19 13:17:45;;;;;;;;;;;;;;;16.31;100.00;100436.81;4933278;28;19930;-80
2023/09/19 13:20:32;;;;;;;;;;;;;;;16.36;100.00;100427.50;4929689;28;20445;-88
2023/09/19 13:23:30;;;;;;;;;;;;;;;16.38;100.00;100441.59;4952141;28;19930;-83
2023/09/19 13:26:16;;;;;;;;;;;;;;;16.43;100.00;100436.75;4936319;28;19930;-87
2023/09/19 13:29:02;;;;;;;;;;;;;;;16.51;100.00;100446.00;4925402;28;20752;-90
2023/09/19 13:31:48;;;;;;;;;;;;;;;16.54;100.00;100443.94;4925857;28;20474;-89
2023/09/19 13:34:33;;;;;;;;;;;;;;;16.61;100.00;100430.94;4941528;28;20033;-81
2023/09/19 13:37:19;;;;;;;;;;;;;;;16.68;100.00;100432.16;4942461;28;19934;-86
2023/09/19 13:40:05;;;;;;;;;;;;;;;16.76;100.00;100428.03;4953458;28;20275;-90
2023/09/19 13:42:54;;;;;;;;;;;;;;;16.80;100.00;100411.66;4937002;28;19946;-87
2023/09/19 13:45:43;;;;;;;;;;;;;;;16.84;100.00;100410.44;4925207;28;19985;-88
2023/09/19 13:48:29;;;;;;;;;;;;;;;16.83;100.00;100413.22;4928627;28;19956;-91
2023/09/19 13:51:15;;;;;;;;;;;;;;;16.80;100.00;100408.13;4929208;28;19937;-87
2023/09/19 13:54:03;;;;;;;;;;;;;;;16.77;100.00;100403.88;4940354;28;19934;-87
2023/09/19 13:56:52;;;;;;;;;;;;;;;16.75;100.00;100400.47;4929874;28;20366;-82
2023/09/19 13:59:40;;;;;;;;;;;;;;;16.73;100.00;100406.91;4940694;28;19962;-87
2023/09/19 14:02:26;;;;;;;;;;;;;;;16.69;100.00;100414.31;4937917;28;19930;-87
2023/09/19 14:05:16;;;;;;;;;;;;;;;16.59;100.00;100422.19;4961982;28;20742;-85
2023/09/19 14:08:05;;;;;;;;;;;;;;;16.47;100.00;100436.50;4962213;28;19980;-87
2023/09/19 14:10:51;;;;;;;;;;;;;;;16.37;100.00;100417.66;4973269;28;19925;-87
2023/09/19 14:13:46;;;;;;;;;;;;;;;16.33;100.00;100422.41;4965759;28;19933;-89
2023/09/19 14:16:35;;;;;;;;;;;;;;;16.35;100.00;100420.44;4975604;28;19909;-86
2023/09/19 14:19:21;;;;;;;;;;;;;;;16.41;100.00;100424.47;4964528;28;19910;-93
2023/09/19 14:22:07;;;;;;;;;;;;;;;16.45;100.00;100425.94;4967727;28;19958;-89
2023/09/19 14:24:53;;;;;;;;;;;;;;;16.51;100.00;100420.13;4957044;28;19925;-90
2023/09/19 14:27:41;;;;;;;;;;;;;;;16.58;100.00;100431.19;4953863;28;19989;-91